createdAt,value
2023-02-14T00:00:58.055Z,17
2023-02-14T00:02:09.880Z,16
2023-02-14T00:03:18.579Z,15
2023-02-14T00:04:25.831Z,17
2023-02-14T00:05:32.557Z,16
2023-02-14T00:06:39.546Z,17
2023-02-14T00:07:49.329Z,17
2023-02-14T00:08:57.137Z,16
2023-02-14T00:10:06.634Z,16
2023-02-14T00:11:13.762Z,15
2023-02-14T00:12:21.358Z,14
2023-02-14T00:13:28.357Z,14
2023-02-14T00:14:35.421Z,15
2023-02-14T00:15:47.569Z,13
2023-02-14T00:16:54.369Z,14
2023-02-14T00:18:03.062Z,14
2023-02-14T00:19:10.806Z,14
2023-02-14T00:20:17.634Z,14
2023-02-14T00:21:24.508Z,13
2023-02-14T00:22:31.374Z,14
2023-02-14T00:23:38.226Z,14
2023-02-14T00:24:47.126Z,14
2023-02-14T00:25:56.196Z,14
2023-02-14T00:27:04.871Z,15
2023-02-14T00:28:13.661Z,14
2023-02-14T00:29:22.620Z,14
2023-02-14T00:30:29.648Z,14
2023-02-14T00:31:36.842Z,15
2023-02-14T00:32:43.590Z,16
2023-02-14T00:33:50.521Z,16
2023-02-14T00:34:57.608Z,16
2023-02-14T00:36:05.529Z,15
2023-02-14T00:37:12.454Z,16
2023-02-14T00:38:19.312Z,17
2023-02-14T00:39:28.140Z,18
2023-02-14T00:40:35.037Z,18
2023-02-14T00:41:41.991Z,19
2023-02-14T00:42:50.101Z,17
2023-02-14T00:43:57.066Z,16
2023-02-14T00:45:03.981Z,17
2023-02-14T00:46:11.983Z,16
2023-02-14T00:47:19.701Z,17
2023-02-14T00:48:27.184Z,16
2023-02-14T00:49:34.055Z,15
2023-02-14T00:50:44.501Z,15
2023-02-14T00:51:52.812Z,16
2023-02-14T00:53:00.542Z,16
2023-02-14T00:54:07.428Z,15
2023-02-14T00:55:15.213Z,15
2023-02-14T00:56:22.172Z,15
2023-02-14T00:57:29.448Z,15
2023-02-14T00:58:37.862Z,14
2023-02-14T00:59:45.650Z,15
2023-02-14T01:00:53.477Z,14
2023-02-14T01:02:02.552Z,14
2023-02-14T01:03:09.569Z,13
2023-02-14T01:04:18.146Z,13
2023-02-14T01:05:25.952Z,15
2023-02-14T01:06:32.836Z,14
2023-02-14T01:07:43.196Z,13
2023-02-14T01:08:50.117Z,15
2023-02-14T01:09:56.914Z,14
2023-02-14T01:11:04.846Z,14
2023-02-14T01:12:11.596Z,15
2023-02-14T01:13:20.581Z,14
2023-02-14T01:14:27.542Z,14
2023-02-14T01:15:34.424Z,15
2023-02-14T01:16:41.272Z,14
2023-02-14T01:17:48.472Z,14
2023-02-14T01:18:55.269Z,14
2023-02-14T01:20:02.171Z,14
2023-02-14T01:21:10.772Z,14
2023-02-14T01:22:18.737Z,15
2023-02-14T01:23:26.662Z,13
2023-02-14T01:24:33.824Z,13
2023-02-14T01:25:40.880Z,14
2023-02-14T01:26:47.779Z,14
2023-02-14T01:27:55.409Z,14
2023-02-14T01:29:02.238Z,15
2023-02-14T01:30:09.231Z,15
2023-02-14T01:31:16.502Z,15
2023-02-14T01:32:25.133Z,15
2023-02-14T01:33:34.941Z,15
2023-02-14T01:34:41.728Z,15
2023-02-14T01:35:48.609Z,15
2023-02-14T01:36:56.351Z,15
2023-02-14T01:38:05.217Z,16
2023-02-14T01:39:12.240Z,15
2023-02-14T01:40:19.305Z,16
2023-02-14T01:41:26.942Z,17
2023-02-14T01:42:34.537Z,18
2023-02-14T01:43:41.443Z,17
2023-02-14T01:44:55.112Z,17
2023-02-14T01:46:04.986Z,16
2023-02-14T01:47:12.731Z,16
2023-02-14T01:48:19.660Z,15
2023-02-14T01:49:27.429Z,15
2023-02-14T01:50:36.266Z,16
2023-02-14T01:51:44.169Z,15
2023-02-14T01:52:50.924Z,15
2023-02-14T01:54:01.448Z,14
2023-02-14T01:55:08.290Z,16
2023-02-14T01:56:20.390Z,15
2023-02-14T01:57:28.126Z,14
2023-02-14T01:58:37.769Z,15
2023-02-14T01:59:44.681Z,15
2023-02-14T02:00:53.636Z,15
2023-02-14T02:02:00.523Z,14
2023-02-14T02:03:08.213Z,15
2023-02-14T02:04:16.426Z,16
2023-02-14T02:05:26.182Z,15
2023-02-14T02:06:33.238Z,17
2023-02-14T02:07:45.265Z,16
2023-02-14T02:08:54.992Z,17
2023-02-14T02:10:12.165Z,18
2023-02-14T02:11:18.964Z,17
2023-02-14T02:12:25.819Z,17
2023-02-14T02:13:32.685Z,16
2023-02-14T02:14:42.506Z,16
2023-02-14T02:15:49.389Z,17
2023-02-14T02:17:06.482Z,17
2023-02-14T02:18:18.509Z,17
2023-02-14T02:19:30.583Z,17
2023-02-14T02:20:47.738Z,17
2023-02-14T02:21:57.250Z,17
2023-02-14T02:23:09.281Z,16
2023-02-14T02:24:22.411Z,17
2023-02-14T02:25:34.609Z,17
2023-02-14T02:26:52.570Z,16
2023-02-14T02:28:05.738Z,18
2023-02-14T02:29:22.898Z,17
2023-02-14T02:30:41.249Z,17
2023-02-14T02:31:59.266Z,18
2023-02-14T02:33:16.278Z,16
2023-02-14T02:34:28.318Z,16
2023-02-14T02:35:45.608Z,16
2023-02-14T02:37:00.485Z,17
2023-02-14T02:38:15.626Z,16
2023-02-14T02:39:32.760Z,16
2023-02-14T02:40:44.688Z,16
2023-02-14T02:42:00.589Z,15
2023-02-14T02:43:17.767Z,16
2023-02-14T02:44:34.923Z,15
2023-02-14T02:45:47.907Z,15
2023-02-14T02:47:05.148Z,16
2023-02-14T02:48:15.041Z,14
2023-02-14T02:49:21.818Z,16
2023-02-14T02:50:44.172Z,16
2023-02-14T02:51:57.117Z,15
2023-02-14T02:53:11.725Z,15
2023-02-14T02:54:23.756Z,16
2023-02-14T02:55:37.354Z,14
2023-02-14T02:56:57.870Z,15
2023-02-14T02:58:05.551Z,15
2023-02-14T02:59:14.267Z,15
2023-02-14T03:00:31.984Z,14
2023-02-14T03:01:40.181Z,15
2023-02-14T03:02:52.149Z,15
2023-02-14T03:04:04.258Z,14
2023-02-14T03:05:16.233Z,15
2023-02-14T03:06:25.455Z,15
2023-02-14T03:07:32.343Z,14
2023-02-14T03:08:41.809Z,15
2023-02-14T03:09:48.807Z,14
2023-02-14T03:11:01.135Z,15
2023-02-14T03:12:07.706Z,15
2023-02-14T03:13:24.890Z,14
2023-02-14T03:14:36.928Z,15
2023-02-14T03:15:54.300Z,15
2023-02-14T03:17:07.036Z,14
2023-02-14T03:18:19.189Z,14
2023-02-14T03:19:34.093Z,15
2023-02-14T03:20:43.706Z,14
2023-02-14T03:21:55.784Z,16
2023-02-14T03:23:10.751Z,16
2023-02-14T03:24:27.987Z,16
2023-02-14T03:25:45.225Z,16
2023-02-14T03:26:59.895Z,16
2023-02-14T03:28:10.553Z,16
2023-02-14T03:29:22.518Z,16
2023-02-14T03:30:34.478Z,16
2023-02-14T03:31:41.440Z,16
2023-02-14T03:32:53.484Z,16
2023-02-14T03:34:03.780Z,16
2023-02-14T03:35:15.708Z,15
2023-02-14T03:36:26.840Z,15
2023-02-14T03:37:36.027Z,14
2023-02-14T03:38:48.615Z,16
2023-02-14T03:39:59.706Z,16
2023-02-14T03:41:11.790Z,15
2023-02-14T03:42:21.332Z,15
2023-02-14T03:43:31.906Z,16
2023-02-14T03:45:45.656Z,16
2023-02-14T03:46:54.346Z,16
2023-02-14T03:48:01.371Z,16
2023-02-14T03:49:08.299Z,17
2023-02-14T03:50:16.331Z,16
2023-02-14T03:51:23.171Z,17
2023-02-14T03:52:30.993Z,17
2023-02-14T03:53:40.525Z,16
2023-02-14T03:54:47.390Z,17
2023-02-14T03:55:54.217Z,16
2023-02-14T03:57:01.159Z,17
2023-02-14T03:58:09.926Z,17
2023-02-14T03:59:24.683Z,16
2023-02-14T04:00:31.754Z,16
2023-02-14T04:01:38.680Z,17
2023-02-14T04:02:48.527Z,15
2023-02-14T04:03:58.233Z,16
2023-02-14T04:05:04.978Z,18
2023-02-14T04:06:11.902Z,16
2023-02-14T04:07:21.417Z,16
2023-02-14T04:08:29.116Z,17
2023-02-14T04:09:36.919Z,17
2023-02-14T04:10:44.925Z,17
2023-02-14T04:11:51.840Z,17
2023-02-14T04:13:00.790Z,16
2023-02-14T04:14:07.721Z,17
2023-02-14T04:15:16.423Z,17
2023-02-14T04:16:23.548Z,17
2023-02-14T04:17:30.428Z,17
2023-02-14T04:18:43.403Z,17
2023-02-14T04:19:55.305Z,16
2023-02-14T04:21:02.395Z,18
2023-02-14T04:22:09.104Z,17
2023-02-14T04:23:15.988Z,16
2023-02-14T04:24:23.488Z,16
2023-02-14T04:25:30.376Z,18
2023-02-14T04:26:37.256Z,16
2023-02-14T04:27:44.139Z,17
2023-02-14T04:28:51.958Z,17
2023-02-14T04:30:01.469Z,18
2023-02-14T04:31:08.711Z,17
2023-02-14T04:32:15.657Z,17
2023-02-14T04:33:22.416Z,17
2023-02-14T04:34:29.316Z,16
2023-02-14T04:35:36.224Z,17
2023-02-14T04:36:46.476Z,16
2023-02-14T04:37:53.380Z,18
2023-02-14T04:39:01.698Z,17
2023-02-14T04:40:08.899Z,16
2023-02-14T04:41:15.917Z,16
2023-02-14T04:42:26.295Z,17
2023-02-14T04:43:33.319Z,17
2023-02-14T04:44:41.561Z,16
2023-02-14T04:45:48.789Z,16
2023-02-14T04:46:55.695Z,16
2023-02-14T04:48:04.278Z,17
2023-02-14T04:49:11.263Z,16
2023-02-14T04:50:20.454Z,17
2023-02-14T04:51:27.674Z,16
2023-02-14T04:52:36.571Z,18
2023-02-14T04:53:44.364Z,17
2023-02-14T04:54:52.667Z,18
2023-02-14T04:56:00.679Z,18
2023-02-14T04:57:07.669Z,16
2023-02-14T04:58:15.405Z,17
2023-02-14T04:59:24.730Z,18
2023-02-14T05:00:30.075Z,17
2023-02-14T05:01:39.795Z,17
2023-02-14T05:02:50.804Z,17
2023-02-14T05:03:57.838Z,17
2023-02-14T05:05:04.778Z,17
2023-02-14T05:06:13.505Z,17
2023-02-14T05:07:20.427Z,17
2023-02-14T05:08:27.365Z,18
2023-02-14T05:09:35.545Z,16
2023-02-14T05:10:43.332Z,19
2023-02-14T05:11:50.217Z,17
2023-02-14T05:12:58.476Z,17
2023-02-14T05:14:08.112Z,17
2023-02-14T05:15:15.008Z,17
2023-02-14T05:16:22.722Z,18
2023-02-14T05:17:30.464Z,18
2023-02-14T05:18:40.811Z,18
2023-02-14T05:19:48.596Z,19
2023-02-14T05:20:56.660Z,19
2023-02-14T05:22:06.336Z,16
2023-02-14T05:23:14.090Z,16
2023-02-14T05:24:21.810Z,16
2023-02-14T05:25:28.703Z,17
2023-02-14T05:26:35.717Z,18
2023-02-14T05:27:42.625Z,17
2023-02-14T05:28:50.415Z,17
2023-02-14T05:29:58.453Z,14
2023-02-14T05:31:05.334Z,14
2023-02-14T05:32:12.313Z,15
2023-02-14T05:33:21.647Z,15
2023-02-14T05:34:29.713Z,15
2023-02-14T05:35:36.579Z,14
2023-02-14T05:36:43.662Z,14
2023-02-14T05:37:50.730Z,15
2023-02-14T05:38:57.583Z,15
2023-02-14T05:40:05.838Z,14
2023-02-14T05:41:12.975Z,15
2023-02-14T05:42:21.985Z,15
2023-02-14T05:43:29.743Z,15
2023-02-14T05:44:36.649Z,18
2023-02-14T05:45:43.653Z,18
2023-02-14T05:46:51.941Z,16
2023-02-14T05:47:59.908Z,19
2023-02-14T05:49:06.813Z,21
2023-02-14T05:50:14.596Z,21
2023-02-14T05:51:21.490Z,19
2023-02-14T05:52:28.523Z,19
2023-02-14T05:53:36.555Z,18
2023-02-14T05:54:43.421Z,19
2023-02-14T05:55:50.190Z,17
2023-02-14T05:56:58.059Z,19
2023-02-14T05:58:05.689Z,21
2023-02-14T05:59:12.694Z,18
2023-02-14T06:00:19.457Z,19
2023-02-14T06:01:27.332Z,20
2023-02-14T06:02:34.956Z,19
2023-02-14T06:03:42.646Z,20
2023-02-14T06:04:49.564Z,19
2023-02-14T06:05:56.400Z,20
2023-02-14T06:07:07.445Z,20
2023-02-14T06:08:14.377Z,21
2023-02-14T06:09:21.123Z,22
2023-02-14T06:10:28.062Z,22
2023-02-14T06:11:34.978Z,21
2023-02-14T06:12:44.772Z,21
2023-02-14T06:13:51.714Z,23
2023-02-14T06:14:58.607Z,23
2023-02-14T06:16:06.767Z,25
2023-02-14T06:17:14.782Z,27
2023-02-14T06:18:21.671Z,27
2023-02-14T06:19:28.542Z,26
2023-02-14T06:20:36.260Z,28
2023-02-14T06:21:43.918Z,26
2023-02-14T06:22:51.638Z,28
2023-02-14T06:23:58.587Z,28
2023-02-14T06:25:06.210Z,30
2023-02-14T06:26:13.035Z,34
2023-02-14T06:27:19.902Z,32
2023-02-14T06:28:26.742Z,31
2023-02-14T06:29:35.698Z,28
2023-02-14T06:30:42.726Z,29
2023-02-14T06:31:49.502Z,28
2023-02-14T06:32:57.918Z,30
2023-02-14T06:34:05.578Z,30
2023-02-14T06:35:13.794Z,31
2023-02-14T06:36:20.695Z,29
2023-02-14T06:37:29.658Z,28
2023-02-14T06:38:36.579Z,27
2023-02-14T06:39:43.433Z,26
2023-02-14T06:40:50.449Z,26
2023-02-14T06:41:57.413Z,25
2023-02-14T06:43:04.203Z,26
2023-02-14T06:44:12.854Z,25
2023-02-14T06:45:19.881Z,25
2023-02-14T06:46:28.687Z,25
2023-02-14T06:47:38.353Z,26
2023-02-14T06:48:45.146Z,27
2023-02-14T06:49:52.178Z,25
2023-02-14T06:50:59.472Z,26
2023-02-14T06:52:05.970Z,26
2023-02-14T06:53:12.953Z,25
2023-02-14T06:54:20.670Z,25
2023-02-14T06:55:27.450Z,23
2023-02-14T06:56:34.538Z,23
2023-02-14T06:57:41.653Z,21
2023-02-14T06:58:48.525Z,22
2023-02-14T06:59:56.278Z,21
2023-02-14T07:01:04.209Z,22
2023-02-14T07:02:12.015Z,22
2023-02-14T07:03:18.833Z,22
2023-02-14T07:04:25.781Z,23
2023-02-14T07:05:34.341Z,25
2023-02-14T07:06:42.113Z,24
2023-02-14T07:07:49.773Z,25
2023-02-14T07:08:56.750Z,26
2023-02-14T07:10:06.088Z,25
2023-02-14T07:11:13.063Z,25
2023-02-14T07:12:19.831Z,24
2023-02-14T07:13:28.139Z,24
2023-02-14T07:14:34.918Z,25
2023-02-14T07:15:44.870Z,22
2023-02-14T07:16:53.533Z,22
2023-02-14T07:18:01.752Z,20
2023-02-14T07:19:08.745Z,21
2023-02-14T07:20:15.521Z,20
2023-02-14T07:21:22.372Z,19
2023-02-14T07:22:30.516Z,20
2023-02-14T07:23:37.089Z,20
2023-02-14T07:24:45.609Z,19
2023-02-14T07:25:52.461Z,19
2023-02-14T07:27:00.258Z,19
2023-02-14T07:28:10.835Z,19
2023-02-14T07:29:18.585Z,18
2023-02-14T07:30:25.458Z,19
2023-02-14T07:31:32.432Z,19
2023-02-14T07:32:39.173Z,18
2023-02-14T07:33:48.259Z,18
2023-02-14T07:34:55.129Z,17
2023-02-14T07:36:01.922Z,17
2023-02-14T07:37:08.930Z,16
2023-02-14T07:38:15.759Z,16
2023-02-14T07:39:22.860Z,16
2023-02-14T07:40:30.174Z,15
2023-02-14T07:41:37.001Z,16
2023-02-14T07:42:44.004Z,16
2023-02-14T07:43:56.116Z,17
2023-02-14T07:45:09.569Z,17
2023-02-14T07:46:09.933Z,16
2023-02-14T07:47:16.775Z,17
2023-02-14T07:48:23.755Z,16
2023-02-14T07:49:30.652Z,17
2023-02-14T07:50:37.616Z,17
2023-02-14T07:51:44.463Z,19
2023-02-14T07:52:51.338Z,17
2023-02-14T07:53:58.324Z,17
2023-02-14T07:55:05.121Z,19
2023-02-14T07:56:12.199Z,18
2023-02-14T07:57:20.067Z,19
2023-02-14T07:58:28.790Z,19
2023-02-14T07:59:35.671Z,18
2023-02-14T08:00:43.437Z,19
2023-02-14T08:01:50.525Z,20
2023-02-14T08:02:57.357Z,19
2023-02-14T08:04:04.235Z,18
2023-02-14T08:05:11.153Z,19
2023-02-14T08:06:17.867Z,18
2023-02-14T08:07:24.926Z,18
2023-02-14T08:08:31.837Z,19
2023-02-14T08:09:38.733Z,21
2023-02-14T08:10:45.519Z,18
2023-02-14T08:11:52.462Z,20
2023-02-14T08:13:04.759Z,20
2023-02-14T08:14:11.920Z,20
2023-02-14T08:15:18.827Z,21
2023-02-14T08:16:33.771Z,21
2023-02-14T08:17:40.724Z,22
2023-02-14T08:18:47.723Z,22
2023-02-14T08:19:54.572Z,23
2023-02-14T08:21:01.781Z,23
2023-02-14T08:22:08.397Z,23
2023-02-14T08:23:15.226Z,22
2023-02-14T08:24:22.141Z,23
2023-02-14T08:25:29.035Z,22
2023-02-14T08:26:35.937Z,21
2023-02-14T08:27:42.830Z,21
2023-02-14T08:28:49.802Z,22
2023-02-14T08:29:56.656Z,22
2023-02-14T08:31:03.700Z,22
2023-02-14T08:32:10.502Z,23
2023-02-14T08:33:17.278Z,23
2023-02-14T08:34:24.128Z,23
2023-02-14T08:35:31.029Z,22
2023-02-14T08:36:38.019Z,22
2023-02-14T08:37:44.919Z,23
2023-02-14T08:38:51.812Z,24
2023-02-14T08:39:58.740Z,22
2023-02-14T08:41:08.451Z,23
2023-02-14T08:42:13.427Z,22
2023-02-14T08:43:21.059Z,21
2023-02-14T08:44:27.891Z,24
2023-02-14T08:45:34.787Z,22
2023-02-14T08:46:41.643Z,24
2023-02-14T08:47:48.397Z,23
2023-02-14T08:48:55.364Z,23
2023-02-14T08:50:02.203Z,22
2023-02-14T08:51:12.637Z,23
2023-02-14T08:52:22.013Z,23
2023-02-14T08:53:29.747Z,23
2023-02-14T08:54:36.542Z,22
2023-02-14T08:55:43.340Z,20
2023-02-14T08:56:50.360Z,22
2023-02-14T08:57:58.242Z,21
2023-02-14T08:59:05.031Z,18
2023-02-14T09:00:11.923Z,18
2023-02-14T09:01:18.846Z,19
2023-02-14T09:02:25.600Z,30
2023-02-14T09:03:32.637Z,27
2023-02-14T09:04:39.482Z,87
2023-02-14T09:05:46.106Z,40
2023-02-14T09:06:53.043Z,57
2023-02-14T09:07:59.994Z,193
2023-02-14T09:09:06.876Z,113
2023-02-14T09:10:14.613Z,176
2023-02-14T09:11:24.572Z,217
2023-02-14T09:12:31.575Z,153
2023-02-14T09:13:38.432Z,223
2023-02-14T09:14:45.305Z,265
2023-02-14T09:15:52.197Z,113
2023-02-14T09:16:59.126Z,131
2023-02-14T09:18:05.970Z,128
2023-02-14T09:19:15.115Z,132
2023-02-14T09:20:22.025Z,199
2023-02-14T09:21:28.896Z,129
2023-02-14T09:22:35.720Z,148
2023-02-14T09:23:43.038Z,66
2023-02-14T09:24:50.377Z,119
2023-02-14T09:25:57.314Z,94
2023-02-14T09:27:07.369Z,112
2023-02-14T09:28:15.330Z,83
2023-02-14T09:29:22.187Z,90
2023-02-14T09:30:29.149Z,79
2023-02-14T09:31:35.943Z,93
2023-02-14T09:32:42.900Z,47
2023-02-14T09:33:50.791Z,50
2023-02-14T09:35:02.924Z,53
2023-02-14T09:36:10.036Z,39
2023-02-14T09:37:16.894Z,26
2023-02-14T09:38:23.922Z,18
2023-02-14T09:39:30.806Z,24
2023-02-14T09:40:37.722Z,30
2023-02-14T09:41:45.039Z,21
2023-02-14T09:42:52.030Z,16
2023-02-14T09:44:09.242Z,20
2023-02-14T09:45:24.468Z,16
2023-02-14T09:46:31.347Z,14
2023-02-14T09:47:38.330Z,20
2023-02-14T09:48:48.003Z,17
2023-02-14T09:49:54.845Z,12
2023-02-14T09:51:02.228Z,13
2023-02-14T09:52:08.959Z,15
2023-02-14T09:53:15.925Z,14
2023-02-14T09:54:28.347Z,14
2023-02-14T09:55:35.166Z,13
2023-02-14T09:56:50.490Z,13
2023-02-14T09:57:52.254Z,12
2023-02-14T09:59:01.906Z,16
2023-02-14T10:00:19.096Z,16
2023-02-14T10:01:26.161Z,17
2023-02-14T10:02:32.957Z,12
2023-02-14T10:03:47.842Z,11
2023-02-14T10:04:54.916Z,13
2023-02-14T10:06:12.134Z,12
2023-02-14T10:07:24.177Z,12
2023-02-14T10:08:36.274Z,11
2023-02-14T10:09:49.401Z,12
2023-02-14T10:11:01.695Z,13
2023-02-14T10:12:13.402Z,11
2023-02-14T10:13:28.120Z,11
2023-02-14T10:14:43.558Z,11
2023-02-14T10:15:50.566Z,12
2023-02-14T10:17:00.400Z,18
2023-02-14T10:18:12.426Z,16
2023-02-14T10:19:24.600Z,17
2023-02-14T10:20:31.444Z,16
2023-02-14T10:21:43.395Z,16
2023-02-14T10:22:55.399Z,16
2023-02-14T10:24:06.094Z,17
2023-02-14T10:25:20.651Z,14
2023-02-14T10:26:32.662Z,12
2023-02-14T10:27:39.702Z,12
2023-02-14T10:28:46.521Z,12
2023-02-14T10:29:53.507Z,12
2023-02-14T10:31:01.183Z,13
2023-02-14T10:32:08.711Z,13
2023-02-14T10:33:16.068Z,17
2023-02-14T10:34:23.017Z,12
2023-02-14T10:35:39.274Z,12
2023-02-14T10:36:51.338Z,12
2023-02-14T10:38:08.616Z,12
2023-02-14T10:39:23.381Z,13
2023-02-14T10:40:35.404Z,11
2023-02-14T10:41:51.225Z,17
2023-02-14T10:42:59.052Z,54
2023-02-14T10:44:13.866Z,20
2023-02-14T10:45:31.130Z,13
2023-02-14T10:46:38.003Z,19
2023-02-14T10:47:56.057Z,15
2023-02-14T10:49:13.246Z,51
2023-02-14T10:50:25.311Z,65
2023-02-14T10:51:35.247Z,53
2023-02-14T10:52:42.158Z,89
2023-02-14T10:53:54.136Z,120
2023-02-14T10:55:06.143Z,104
2023-02-14T10:56:22.458Z,57
2023-02-14T10:57:31.570Z,30
2023-02-14T10:58:41.383Z,53
2023-02-14T10:59:48.285Z,55
2023-02-14T11:01:05.541Z,111
2023-02-14T11:02:15.267Z,97
2023-02-14T11:03:22.378Z,58
2023-02-14T11:04:30.283Z,45
2023-02-14T11:05:37.164Z,24
2023-02-14T11:06:46.813Z,14
2023-02-14T11:07:53.686Z,11
2023-02-14T11:09:01.528Z,16
2023-02-14T11:10:08.282Z,26
2023-02-14T11:11:15.473Z,42
2023-02-14T11:12:27.562Z,18
2023-02-14T11:13:37.242Z,16
2023-02-14T11:14:44.253Z,18
2023-02-14T11:15:51.137Z,15
2023-02-14T11:16:58.095Z,13
2023-02-14T11:18:15.270Z,17
2023-02-14T11:19:27.325Z,18
2023-02-14T11:20:34.132Z,18
2023-02-14T11:21:42.060Z,16
2023-02-14T11:22:49.002Z,17
2023-02-14T11:23:56.635Z,17
2023-02-14T11:25:04.645Z,17
2023-02-14T11:26:10.742Z,16
2023-02-14T11:27:22.753Z,19
2023-02-14T11:28:29.677Z,18
2023-02-14T11:29:36.540Z,19
2023-02-14T11:30:46.319Z,23
2023-02-14T11:31:53.373Z,28
2023-02-14T11:33:00.088Z,23
2023-02-14T11:34:07.060Z,18
2023-02-14T11:35:22.273Z,13
2023-02-14T11:36:30.331Z,12
2023-02-14T11:37:38.323Z,14
2023-02-14T11:38:53.138Z,13
2023-02-14T11:40:05.248Z,15
2023-02-14T11:41:24.433Z,11
2023-02-14T11:42:29.395Z,11
2023-02-14T11:43:41.645Z,11
2023-02-14T11:44:48.584Z,10
2023-02-14T11:45:58.941Z,10
2023-02-14T11:47:14.309Z,10
2023-02-14T11:48:38.057Z,12
2023-02-14T11:49:33.282Z,12
2023-02-14T11:50:40.280Z,14
2023-02-14T11:51:47.134Z,11
2023-02-14T11:52:54.873Z,11
2023-02-14T11:54:01.844Z,11
2023-02-14T11:55:08.752Z,10
2023-02-14T11:56:15.651Z,11
2023-02-14T11:57:22.618Z,10
2023-02-14T11:58:32.454Z,12
2023-02-14T11:59:42.229Z,12
2023-02-14T12:00:54.321Z,11
2023-02-14T12:02:01.315Z,11
2023-02-14T12:03:18.537Z,16
2023-02-14T12:04:25.725Z,15
2023-02-14T12:05:35.534Z,13
2023-02-14T12:06:47.563Z,18
2023-02-14T12:07:54.490Z,16
2023-02-14T12:09:04.382Z,19
2023-02-14T12:10:21.866Z,17
2023-02-14T12:11:31.986Z,16
2023-02-14T12:12:38.952Z,23
2023-02-14T12:13:54.009Z,10
2023-02-14T12:15:01.788Z,11
2023-02-14T12:16:18.915Z,13
2023-02-14T12:17:31.922Z,13
2023-02-14T12:18:38.862Z,14
2023-02-14T12:19:53.803Z,13
2023-02-14T12:21:11.029Z,13
2023-02-14T12:22:27.504Z,26
2023-02-14T12:23:32.460Z,36
2023-02-14T12:24:43.460Z,45
2023-02-14T12:25:55.447Z,19
2023-02-14T12:27:07.442Z,11
2023-02-14T12:28:19.427Z,10
2023-02-14T12:29:26.342Z,23
2023-02-14T12:30:36.004Z,38
2023-02-14T12:31:43.073Z,14
2023-02-14T12:32:50.648Z,11
2023-02-14T12:33:59.018Z,10
2023-02-14T12:35:05.866Z,9
2023-02-14T12:36:18.174Z,9
2023-02-14T12:37:35.403Z,9
2023-02-14T12:38:52.748Z,8
2023-02-14T12:40:04.750Z,9
2023-02-14T12:41:14.510Z,10
2023-02-14T12:42:26.422Z,9
2023-02-14T12:43:38.359Z,18
2023-02-14T12:44:52.040Z,19
2023-02-14T12:46:07.107Z,22
2023-02-14T12:47:19.087Z,34
2023-02-14T12:48:31.169Z,35
2023-02-14T12:49:44.124Z,30
2023-02-14T12:51:01.594Z,22
2023-02-14T12:52:13.996Z,11
2023-02-14T12:53:31.162Z,14
2023-02-14T12:54:43.236Z,15
2023-02-14T12:56:00.539Z,15
2023-02-14T12:57:13.494Z,22
2023-02-14T12:58:28.365Z,19
2023-02-14T12:59:40.398Z,12
2023-02-14T13:00:57.853Z,8
2023-02-14T13:02:14.933Z,12
2023-02-14T13:03:26.979Z,13
2023-02-14T13:04:44.199Z,26
2023-02-14T13:05:56.174Z,33
2023-02-14T13:07:11.374Z,24
2023-02-14T13:08:18.945Z,18
2023-02-14T13:09:33.914Z,12
2023-02-14T13:10:43.499Z,12
2023-02-14T13:12:00.807Z,8
2023-02-14T13:13:13.816Z,11
2023-02-14T13:14:25.901Z,18
2023-02-14T13:15:43.309Z,18
2023-02-14T13:16:52.988Z,17
2023-02-14T13:18:00.144Z,13
2023-02-14T13:19:17.302Z,15
2023-02-14T13:20:29.723Z,11
2023-02-14T13:21:46.539Z,13
2023-02-14T13:22:53.470Z,10
2023-02-14T13:24:00.373Z,11
2023-02-14T13:25:12.432Z,13
2023-02-14T13:26:19.436Z,13
2023-02-14T13:27:28.967Z,8
2023-02-14T13:28:36.200Z,9
2023-02-14T13:29:43.080Z,11
2023-02-14T13:30:50.857Z,11
2023-02-14T13:31:57.916Z,9
2023-02-14T13:33:05.886Z,11
2023-02-14T13:34:12.848Z,11
2023-02-14T13:35:24.979Z,9
2023-02-14T13:36:32.054Z,10
2023-02-14T13:37:38.900Z,10
2023-02-14T13:38:45.962Z,11
2023-02-14T13:39:52.940Z,10
2023-02-14T13:41:05.200Z,9
2023-02-14T13:42:12.023Z,10
2023-02-14T13:43:23.930Z,11
2023-02-14T13:44:41.393Z,11
2023-02-14T13:45:51.283Z,13
2023-02-14T13:46:58.437Z,13
2023-02-14T13:48:05.193Z,12
2023-02-14T13:49:20.161Z,13
2023-02-14T13:50:27.357Z,13
2023-02-14T13:51:34.017Z,13
2023-02-14T13:52:45.996Z,10
2023-02-14T13:53:52.858Z,11
2023-02-14T13:55:01.314Z,11
2023-02-14T13:56:10.992Z,12
2023-02-14T13:57:21.713Z,13
2023-02-14T13:58:36.663Z,14
2023-02-14T13:59:53.960Z,14
2023-02-14T14:01:11.254Z,10
2023-02-14T14:02:30.151Z,10
2023-02-14T14:03:35.860Z,12
2023-02-14T14:04:46.289Z,12
2023-02-14T14:05:53.164Z,13
2023-02-14T14:07:00.090Z,12
2023-02-14T14:08:06.994Z,11
2023-02-14T14:09:24.332Z,10
2023-02-14T14:10:42.536Z,10
2023-02-14T14:11:54.565Z,12
2023-02-14T14:13:01.468Z,13
2023-02-14T14:14:08.416Z,11
2023-02-14T14:15:23.384Z,10
2023-02-14T14:16:30.384Z,10
2023-02-14T14:17:37.272Z,10
2023-02-14T14:18:47.010Z,11
2023-02-14T14:19:57.821Z,11
2023-02-14T14:21:05.125Z,13
2023-02-14T14:22:17.515Z,11
2023-02-14T14:23:24.802Z,11
2023-02-14T14:24:35.427Z,11
2023-02-14T14:25:42.522Z,10
2023-02-14T14:26:49.484Z,10
2023-02-14T14:28:04.445Z,10
2023-02-14T14:29:20.153Z,11
2023-02-14T14:30:27.020Z,12
2023-02-14T14:31:33.936Z,13
2023-02-14T14:32:40.848Z,13
2023-02-14T14:33:47.825Z,12
2023-02-14T14:35:00.951Z,13
2023-02-14T14:36:15.798Z,12
2023-02-14T14:37:25.450Z,14
2023-02-14T14:38:35.816Z,13
2023-02-14T14:39:51.614Z,13
2023-02-14T14:41:01.553Z,12
2023-02-14T14:42:08.496Z,13
2023-02-14T14:43:18.569Z,13
2023-02-14T14:44:30.757Z,12
2023-02-14T14:45:37.772Z,36
2023-02-14T14:46:45.491Z,51
2023-02-14T14:47:54.157Z,47
2023-02-14T14:48:59.539Z,62
2023-02-14T14:50:06.487Z,45
2023-02-14T14:51:16.392Z,43
2023-02-14T14:52:31.506Z,75
2023-02-14T14:53:41.794Z,139
2023-02-14T14:54:48.678Z,101
2023-02-14T14:55:55.610Z,86
2023-02-14T14:57:02.620Z,132
2023-02-14T14:58:09.570Z,80
2023-02-14T14:59:26.749Z,124
2023-02-14T15:00:38.823Z,150
2023-02-14T15:01:45.737Z,124
2023-02-14T15:02:52.614Z,112
2023-02-14T15:04:07.889Z,118
2023-02-14T15:05:17.260Z,157
2023-02-14T15:06:30.277Z,134
2023-02-14T15:07:37.542Z,100
2023-02-14T15:08:44.252Z,86
2023-02-14T15:09:51.184Z,64
2023-02-14T15:10:59.478Z,49
2023-02-14T15:12:11.117Z,23
2023-02-14T15:13:23.096Z,27
2023-02-14T15:14:40.343Z,21
2023-02-14T15:15:47.246Z,20
2023-02-14T15:16:54.202Z,17
2023-02-14T15:18:03.983Z,18
2023-02-14T15:19:10.980Z,16
2023-02-14T15:20:23.047Z,16
2023-02-14T15:21:29.923Z,16
2023-02-14T15:22:37.236Z,17
2023-02-14T15:23:47.309Z,16
2023-02-14T15:24:54.161Z,17
2023-02-14T15:26:01.200Z,17
2023-02-14T15:27:08.253Z,17
2023-02-14T15:28:15.128Z,18
2023-02-14T15:29:29.964Z,17
2023-02-14T15:30:37.241Z,18
2023-02-14T15:31:44.689Z,18
2023-02-14T15:32:51.621Z,19
2023-02-14T15:33:58.640Z,19
2023-02-14T15:35:06.443Z,21
2023-02-14T15:36:13.382Z,20
2023-02-14T15:37:23.052Z,18
2023-02-14T15:38:29.990Z,20
2023-02-14T15:39:38.009Z,20
2023-02-14T15:40:44.882Z,19
2023-02-14T15:41:51.790Z,20
2023-02-14T15:43:01.588Z,19
2023-02-14T15:44:16.662Z,19
2023-02-14T15:45:23.580Z,20
2023-02-14T15:46:30.640Z,20
2023-02-14T15:47:37.423Z,22
2023-02-14T15:48:44.743Z,20
2023-02-14T15:49:51.771Z,21
2023-02-14T15:50:58.729Z,22
2023-02-14T15:52:05.513Z,21
2023-02-14T15:53:15.251Z,21
2023-02-14T15:54:22.069Z,20
2023-02-14T15:55:29.001Z,24
2023-02-14T15:56:35.960Z,27
2023-02-14T15:57:50.835Z,26
2023-02-14T15:59:03.773Z,22
2023-02-14T16:00:10.697Z,22
2023-02-14T16:01:22.801Z,22
2023-02-14T16:02:29.720Z,19
2023-02-14T16:03:36.666Z,20
2023-02-14T16:04:43.674Z,19
2023-02-14T16:05:50.606Z,20
2023-02-14T16:06:57.709Z,21
2023-02-14T16:08:07.356Z,20
2023-02-14T16:09:24.490Z,22
2023-02-14T16:10:31.535Z,21
2023-02-14T16:11:38.519Z,23
2023-02-14T16:12:45.478Z,23
2023-02-14T16:13:57.566Z,24
2023-02-14T16:15:14.732Z,23
2023-02-14T16:16:21.628Z,23
2023-02-14T16:17:28.493Z,25
2023-02-14T16:18:35.440Z,25
2023-02-14T16:19:42.436Z,61
2023-02-14T16:20:49.276Z,99
2023-02-14T16:21:56.480Z,98
2023-02-14T16:23:03.495Z,101
2023-02-14T16:24:20.674Z,89
2023-02-14T16:25:27.606Z,70
2023-02-14T16:26:34.498Z,51